NEODyS-2

Near Earth Objects - Dynamic Site
NEODyS ∴ Observatories ∴ Site 691 ∴ Obs & residuals
Contact »
691  ▹ 
OBSERVATIONS AND RESIDUALS

691-Steward Observatory, Kitt Peak-Spacewatch

Detections | Residuals | Detections & Residuals

[1-200] [201-400] [401-600] [601-800] [801-1000] [1001-1200] [1201-1400] [1401-1600] [1601-1800] [1801-2000] [2001-2200] [2201-2400] [2401-2600] [2601-2800] [2801-3000] [3001-3200] [3201-3400] [3401-3600] [3601-3800] [3801-4000] [4001-4200] [4201-4400] [4401-4600] [4601-4800] [4801-5000] [5001-5200] [5201-5400] [5401-5600] [5601-5800] [5801-6000] [6001-6200] [6201-6400] [6401-6600] [6601-6800] [6801-7000] [7001-7200] [7201-7400] [7401-7600] [7601-7800] [7801-8000] [8001-8200] [8201-8400] [8401-8600] [8601-8800] [8801-9000] [9001-9200] [9201-9400] [9401-9600] [9601-9800] [9801-10000] [10001-10200] [10201-10400] [10401-10600] [10601-10800] [10801-11000] [11001-11200] [11201-11400] [11401-11600] [11601-11800] [11801-12000] [12001-12200] [12201-12400] [12401-12600] [12601-12800] [12801-13000] [13001-13200] [13201-13400] [13401-13600] [13601-13800] [13801-14000] [14001-14200] [14201-14400] [14401-14600] [14601-14800] [14801-15000] [15001-15200] [15201-15400] [15401-15600] [15601-15800] [15801-16000] [16001-16200] [16201-16400] [16401-16600] [16601-16800] [16801-17000] [17001-17200] [17201-17400] [17401-17600] [17601-17800] [17801-18000] [18001-18200] [18201-18400] [18401-18600] [18601-18800] [18801-19000] [19001-19200] [19201-19400] [19401-19600] [19601-19800] [19801-20000] [20001-20200] [20201-20400] [20401-20600] [20601-20800] [20801-21000] [21001-21200] [21201-21400] [21401-21600] [21601-21800] [21801-22000] [22001-22200] [22201-22400] [22401-22600] [22601-22800] [22801-23000] [23001-23200] [23201-23400] [23401-23600] [23601-23800] [23801-24000] [24001-24200] [24201-24400] [24401-24600] [24601-24800] [24801-25000] [25001-25200] [25201-25400] [25401-25600] [25601-25800] [25801-26000] [26001-26200] [26201-26400] [26401-26600] [26601-26800] [26801-27000] [27001-27200] [27201-27400] [27401-27600] [27601-27800] [27801-28000] [28001-28200] [28201-28400] [28401-28600] [28601-28800] [28801-29000] [29001-29200] [29201-29400] [29401-29600] [29601-29800] [29801-30000] [30001-30200] [30201-30400] [30401-30600] [30601-30800] [30801-31000] [31001-31200] [31201-31400] [31401-31600] [31601-31800] [31801-32000] [32001-32200] [32201-32400] [32401-32600] [32601-32800] [32801-33000] [33001-33200] [33201-33400] [33401-33600] [33601-33800] [33801-34000] [34001-34200] [34201-34400] [34401-34600] [34601-34800] [34801-35000] [35001-35200] [35201-35400] [35401-35600] [35601-35800] [35801-36000] [36001-36200] [36201-36400] [36401-36600] [36601-36800] [36801-37000] [37001-37200] [37201-37400] [37401-37600] [37601-37800] [37801-38000] [38001-38200] [38201-38400] [38401-38600] [38601-38800] [38801-39000] [39001-39200] [39201-39400] [39401-39600] [39601-39800] [39801-40000] [40001-40200] [40201-40400] [40401-40600] [40601-40800] [40801-41000] [41001-41200] [41201-41400] [41401-41600] [41601-41800] [41801-42000] [42001-42200] [42201-42400] [42401-42600] [42601-42800] [42801-43000] [43001-43200] [43201-43400] [43401-43600] [43601-43800] [43801-44000] [44001-44200] [44201-44400] [44401-44600] [44601-44800] [44801-45000] [45001-45200] [45201-45400] [45401-45600] [45601-45800] [45801-46000] [46001-46200] [46201-46400] [46401-46600] [46601-46800] [46801-47000] [47001-47200] [47201-47400] [47401-47600] [47601-47800] [47801-48000] [48001-48200] [48201-48400] [48401-48600] [48601-48800] [48801-49000] [49001-49200] [49201-49400] [49401-49600] [49601-49800] [49801-50000] [50001-50200] [50201-50388]

Designation T Tech N Date Right Ascension Declination Apparent Magnitude Star Catalog Site code χ Used A Used M
yr-mo-day precision hr:min:sec precision rms F bias residual deg min sec precision rms F bias residual mag/col rms residual
1998KU2 O C 2012-12-10.41006 1.000E-05 07:53:32.530 1.500E-01 0.500 F -0.043 -0.452 +13° 43' 05.50" 1.000E-01 0.500 F 0.257 0.021 20.5 V 0.70 -0.29 o 691 0.90 Yes Yes
2012XD112 O C 2012-12-10.42265 1.000E-05 08:00:02.440 1.500E-01 0.500 F 0.025 -0.037 +15° 42' 38.50" 1.000E-01 0.500 F 0.168 0.031 19.5 V 0.70 0.11 o 691 0.10 Yes Yes
1998KU2 O C 2012-12-10.42774 1.000E-05 07:53:31.520 1.500E-01 0.500 F -0.043 -0.703 +13° 43' 05.80" 1.000E-01 0.500 F 0.257 -0.221 20.2 V 0.70 -0.59 o 691 1.47 Yes Yes
2012XD112 O C 2012-12-10.44032 1.000E-05 08:00:06.280 1.500E-01 0.500 F 0.025 -0.041 +15° 42' 36.00" 1.000E-01 0.500 F 0.168 0.245 19.5 V 0.70 0.12 o 691 0.50 Yes Yes
1998KU2 O C 2012-12-10.44541 1.000E-05 07:53:30.540 1.500E-01 0.500 F -0.043 -0.520 +13° 43' 06.50" 1.000E-01 0.500 F 0.257 -0.054 20.2 V 0.70 -0.59 o 691 1.04 Yes Yes
2001JW2 O C 2012-12-11.09235 1.000E-05 02:47:53.010 1.500E-01 0.500 F -0.173 -0.141 +15° 09' 01.60" 1.000E-01 0.500 F 0.266 0.150 19.0 V 0.70 0.10 o 691 0.41 Yes Yes
2001JW2 O C 2012-12-11.14031 1.000E-05 02:47:56.890 1.500E-01 0.500 F -0.173 -0.339 +15° 08' 23.00" 1.000E-01 0.500 F 0.266 -0.226 19.0 V 0.70 0.10 o 691 0.82 Yes Yes
2001JW2 O C 2012-12-11.18789 1.000E-05 02:48:00.720 1.500E-01 0.500 F -0.173 -0.146 +15° 07' 45.00" 1.000E-01 0.500 F 0.266 -0.040 19.1 V 0.70 0.19 o 691 0.30 Yes Yes
2003KU2 O C H 2012-12-11.24152 1.000E-05 07:34:11.460 1.500E-01 0.500 F 0.012 -0.844 +19° 19' 27.10" 1.000E-01 0.500 F 0.211 -0.437 o 691 1.93 Yes No
2003KU2 O C H 2012-12-11.25921 1.000E-05 07:34:09.560 1.500E-01 0.500 F 0.012 0.077 +19° 19' 36.70" 1.000E-01 0.500 F 0.211 -0.621 o 691 1.25 Yes No
2012XF17 O C 2012-12-11.34786 1.000E-05 08:27:15.410 1.500E-01 0.500 F 0.133 0.012 +20° 32' 25.30" 1.000E-01 0.500 F 0.263 -0.002 20.1 V 0.70 0.07 o 691 0.02 Yes Yes
Mithra O C 2012-12-11.34786 1.000E-05 08:24:33.330 1.500E-01 0.500 F 0.050 -1.001 +21° 16' 26.40" 1.000E-01 0.500 F 0.262 0.331 19.7 V 0.70 -0.04 o 691 2.11 Yes Yes
2012XF17 O C 2012-12-11.36556 1.000E-05 08:27:17.100 1.500E-01 0.500 F 0.133 -0.237 +20° 32' 14.50" 1.000E-01 0.500 F 0.263 0.130 20.1 V 0.70 0.07 o 691 0.55 Yes Yes
Mithra O C 2012-12-11.36556 1.000E-05 08:24:32.850 1.500E-01 0.500 F 0.050 0.203 +21° 16' 29.70" 1.000E-01 0.500 F 0.262 0.196 19.7 V 0.70 -0.04 o 691 0.56 Yes Yes
2012XF17 O C 2012-12-11.38328 1.000E-05 08:27:18.690 1.500E-01 0.500 F 0.133 -1.731 +20° 32' 03.00" 1.000E-01 0.500 F 0.263 -0.315 19.8 V 0.70 -0.23 o 691 3.46 No Yes
Mithra O C 2012-12-11.38328 1.000E-05 08:24:32.250 1.500E-01 0.500 F 0.050 -0.229 +21° 16' 33.10" 1.000E-01 0.500 F 0.262 0.170 19.8 V 0.70 0.06 o 691 0.57 Yes Yes
2007BM8 O C H 2012-12-12.28802 1.000E-05 07:26:54.470 1.500E-01 0.500 F 0.005 0.281 +29° 58' 11.00" 1.000E-01 0.500 F 0.249 -0.905 o 691 1.91 Yes No
2007BM8 O C H 2012-12-12.30597 1.000E-05 07:26:52.480 1.500E-01 0.500 F 0.005 -0.387 +29° 58' 27.10" 1.000E-01 0.500 F 0.249 -0.239 o 691 0.92 Yes No
2007BM8 O C H 2012-12-12.32391 1.000E-05 07:26:50.580 1.500E-01 0.500 F 0.005 0.154 +29° 58' 42.30" 1.000E-01 0.500 F 0.249 -0.435 o 691 0.93 Yes No
2010QD2 O C 2012-12-12.41182 1.000E-05 08:29:28.900 1.500E-01 0.500 F -0.032 -0.559 +14° 04' 08.80" 1.000E-01 0.500 F 0.149 -0.162 20.5 V 0.70 0.22 o 691 1.17 Yes Yes
2010QD2 O C 2012-12-12.42967 1.000E-05 08:29:28.480 1.500E-01 0.500 F -0.032 -0.233 +14° 04' 11.30" 1.000E-01 0.500 F 0.149 0.067 20.4 V 0.70 0.12 o 691 0.49 Yes Yes
2010QD2 O C 2012-12-12.44774 1.000E-05 08:29:28.000 1.500E-01 0.500 F -0.032 -0.683 +14° 04' 13.70" 1.000E-01 0.500 F 0.149 0.183 19.9 V 0.70 -0.38 o 691 1.42 Yes Yes
2010JK1 O C H 2012-12-13.07875 1.000E-05 02:40:05.690 1.500E-01 0.500 F -0.208 0.216 +13° 06' 13.90" 1.000E-01 0.500 F 0.128 -0.681 o 691 1.46 Yes No
2001JW2 O C 2012-12-13.08674 1.000E-05 02:50:46.020 1.500E-01 0.612 F -0.207 -0.270 +14° 43' 48.80" 1.000E-01 0.612 F 0.275 -0.066 19.1 V 0.70 0.04 o 691 0.45 Yes Yes
2001JW2 O C 2012-12-13.10265 1.000E-05 02:50:47.300 1.500E-01 0.612 F -0.207 -0.103 +14° 43' 37.80" 1.000E-01 0.612 F 0.275 -0.132 19.1 V 0.70 0.04 o 691 0.27 Yes Yes
2010JK1 O C H 2012-12-13.12674 1.000E-05 02:40:18.280 1.500E-01 0.500 F -0.208 -0.179 +13° 07' 43.70" 1.000E-01 0.500 F 0.128 -0.587 o 691 1.28 Yes No
2001JW2 O C 2012-12-13.13474 1.000E-05 02:50:49.830 1.500E-01 0.612 F -0.207 -0.217 +14° 43' 15.70" 1.000E-01 0.612 F 0.275 -0.106 19.2 V 0.70 0.14 o 691 0.39 Yes Yes
2001JW2 O C 2012-12-13.15063 1.000E-05 02:50:51.090 1.500E-01 0.612 F -0.207 -0.052 +14° 43' 04.60" 1.000E-01 0.612 F 0.275 -0.210 19.1 V 0.70 0.04 o 691 0.35 Yes Yes
2010JK1 O C H 2012-12-13.17451 1.000E-05 02:40:30.520 1.500E-01 0.500 F -0.208 0.297 +13° 09' 10.60" 1.000E-01 0.500 F 0.128 -0.289 o 691 0.85 Yes No
2001JW2 O C 2012-12-13.18249 1.000E-05 02:50:53.590 1.500E-01 0.612 F -0.207 0.049 +14° 42' 42.70" 1.000E-01 0.612 F 0.275 0.029 19.2 V 0.70 0.14 o 691 0.09 Yes Yes
2001JW2 O C 2012-12-13.19840 1.000E-05 02:50:54.820 1.500E-01 0.612 F -0.207 -0.127 +14° 42' 31.40" 1.000E-01 0.612 F 0.275 -0.170 19.2 V 0.70 0.14 o 691 0.35 Yes Yes
2012XT93 O C 2012-12-13.28937 1.000E-05 07:34:43.660 1.500E-01 0.500 F -0.071 -0.130 +23° 34' 29.40" 1.000E-01 0.500 F 0.221 -0.439 20.0 V 0.70 -0.23 o 691 0.94 Yes Yes
2012XT93 O C 2012-12-13.30786 1.000E-05 07:34:42.140 1.500E-01 0.500 F -0.071 -0.318 +23° 35' 15.20" 1.000E-01 0.500 F 0.221 0.042 20.5 V 0.70 0.27 o 691 0.66 Yes Yes
2012XT93 O C 2012-12-13.32635 1.000E-05 07:34:40.480 1.500E-01 0.500 F -0.071 -2.187 +23° 36' 01.30" 1.000E-01 0.500 F 0.221 1.002 20.9 V 0.70 0.67 o 691 4.67 No Yes
2002AW O C 2013-01-04.11527 1.000E-05 05:24:54.350 1.500E-01 0.500 F -0.103 -1.872 +21° 21' 40.90" 1.000E-01 0.500 F 0.212 -1.053 20.0 V 0.70 -0.13 o 691 4.25 No Yes
2002AW O C 2013-01-04.14042 1.000E-05 05:24:50.560 1.500E-01 0.500 F -0.103 -0.061 +21° 21' 41.50" 1.000E-01 0.500 F 0.212 -0.175 20.1 V 0.70 -0.03 o 691 0.37 Yes Yes
2002AW O C 2013-01-04.15634 1.000E-05 05:24:48.090 1.500E-01 0.500 F -0.103 0.234 +21° 21' 41.50" 1.000E-01 0.500 F 0.212 0.073 20.0 V 0.70 -0.13 o 691 0.50 Yes Yes
2004HK33 O C 2013-01-04.23520 1.000E-05 08:07:09.350 1.500E-01 0.500 F 0.017 -0.134 +21° 33' 31.60" 1.000E-01 0.500 F 0.229 0.074 21.0 V 0.70 0.20 o 691 0.31 Yes Yes
2004HK33 O C 2013-01-04.25290 1.000E-05 08:07:07.760 1.500E-01 0.500 F 0.017 -0.342 +21° 33' 38.60" 1.000E-01 0.500 F 0.229 0.238 20.8 V 0.70 0.00 o 691 0.84 Yes Yes
2004HK33 O C 2013-01-04.27062 1.000E-05 08:07:06.190 1.500E-01 0.500 F 0.017 -0.204 +21° 33' 45.30" 1.000E-01 0.500 F 0.229 0.114 20.6 V 0.70 -0.20 o 691 0.47 Yes Yes
2005RN33 O C 2013-01-04.40135 1.000E-05 09:42:33.500 1.500E-01 0.500 F 0.135 0.059 +19° 24' 28.00" 1.000E-01 0.500 F 0.494 -0.188 20.8 V 0.70 0.14 o 691 0.40 Yes Yes
2005RN33 O C 2013-01-04.41904 1.000E-05 09:42:32.850 1.500E-01 0.500 F 0.135 -0.015 +19° 24' 42.90" 1.000E-01 0.500 F 0.494 -0.288 20.5 V 0.70 -0.16 o 691 0.58 Yes Yes
2005RN33 O C 2013-01-04.43670 1.000E-05 09:42:32.210 1.500E-01 0.500 F 0.135 0.058 +19° 24' 58.20" 1.000E-01 0.500 F 0.494 0.080 20.6 V 0.70 -0.06 o 691 0.20 Yes Yes
2005TJ174 O C 2013-01-04.45009 1.000E-05 09:48:42.340 1.500E-01 0.500 F 0.018 -0.643 +12° 40' 06.80" 1.000E-01 0.500 F 0.192 -0.037 20.4 V 0.70 -0.20 o 691 1.29 Yes Yes
2005TJ174 O C 2013-01-04.46776 1.000E-05 09:48:41.520 1.500E-01 0.500 F 0.018 -0.282 +12° 40' 09.30" 1.000E-01 0.500 F 0.192 -0.085 20.4 V 0.70 -0.20 o 691 0.59 Yes Yes
2005TJ174 O C 2013-01-04.48543 1.000E-05 09:48:40.670 1.500E-01 0.500 F 0.018 -0.365 +12° 40' 12.50" 1.000E-01 0.500 F 0.192 0.577 20.3 V 0.70 -0.30 o 691 1.37 Yes Yes
2001YM2 O C 2013-01-05.07176 1.000E-05 05:09:36.700 1.500E-01 0.500 F -0.017 -0.035 +24° 03' 55.90" 1.000E-01 0.500 F 0.076 -0.233 19.6 V 0.70 0.62 o 691 0.48 Yes Yes
2001YM2 O C 2013-01-05.10629 1.000E-05 05:09:38.800 1.500E-01 0.500 F -0.017 -1.623 +24° 04' 20.40" 1.000E-01 0.500 F 0.076 -1.142 19.1 V 0.70 0.12 o 691 3.92 No Yes
2001YM2 O C 2013-01-05.14568 1.000E-05 05:09:41.380 1.500E-01 0.500 F -0.017 -0.131 +24° 04' 49.80" 1.000E-01 0.500 F 0.076 -0.361 19.5 V 0.70 0.51 o 691 0.78 Yes Yes
1998WT O C 2013-01-05.34888 1.000E-05 09:22:30.080 1.500E-01 0.500 F 0.038 -0.094 +16° 27' 16.20" 1.000E-01 0.500 F 0.258 -0.002 19.2 V 0.70 0.22 o 691 0.19 Yes Yes
1998WT O C 2013-01-05.36657 1.000E-05 09:22:28.600 1.500E-01 0.500 F 0.038 -0.209 +16° 27' 21.20" 1.000E-01 0.500 F 0.258 0.197 19.2 V 0.70 0.22 o 691 0.57 Yes Yes
1998WT O C 2013-01-05.38425 1.000E-05 09:22:27.120 1.500E-01 0.500 F 0.038 -0.281 +16° 27' 25.70" 1.000E-01 0.500 F 0.258 -0.074 19.3 V 0.70 0.32 o 691 0.58 Yes Yes
2003XF11 O C 2013-01-05.45990 1.000E-05 10:16:16.210 1.500E-01 0.500 F 0.042 0.155 +15° 03' 40.30" 1.000E-01 0.500 F 0.151 -0.108 21.4 V 0.70 0.24 o 691 0.38 Yes Yes
2003XF11 O C 2013-01-05.47758 1.000E-05 10:16:15.520 1.500E-01 0.500 F 0.042 -0.904 +15° 03' 47.50" 1.000E-01 0.500 F 0.151 0.339 21.2 V 0.70 0.04 o 691 1.94 Yes Yes
2003XF11 O C 2013-01-05.49525 1.000E-05 10:16:14.930 1.500E-01 0.500 F 0.042 -0.519 +15° 03' 54.50" 1.000E-01 0.500 F 0.151 0.598 21.1 V 0.70 -0.06 o 691 1.59 Yes Yes
2004DV24 O C H 2013-01-05.52102 1.000E-05 15:20:59.430 1.500E-01 0.500 F 0.142 -0.250 +07° 12' 54.60" 1.000E-01 0.500 F 0.132 -0.972 o 691 2.01 Yes No
2004DV24 O C H 2013-01-05.53361 1.000E-05 15:21:01.300 1.500E-01 0.500 F 0.142 0.127 +07° 13' 04.30" 1.000E-01 0.500 F 0.132 -0.795 o 691 1.61 Yes No
2004DV24 O C H 2013-01-05.54624 1.000E-05 15:21:03.140 1.500E-01 0.500 F 0.142 -0.013 +07° 13' 14.00" 1.000E-01 0.500 F 0.132 -0.650 o 691 1.30 Yes No
2010QD2 O C 2013-01-06.19177 1.000E-05 08:01:03.490 1.500E-01 0.500 F 0.015 -0.090 +16° 33' 36.70" 1.000E-01 0.500 F 0.168 -0.146 18.9 V 0.70 0.32 o 691 0.35 Yes Yes
2010QD2 O C 2013-01-06.20945 1.000E-05 08:01:01.190 1.500E-01 0.500 F 0.015 0.010 +16° 33' 48.40" 1.000E-01 0.500 F 0.168 -0.138 19.3 V 0.70 0.72 o 691 0.28 Yes Yes
2010QD2 O C 2013-01-06.22712 1.000E-05 08:00:58.870 1.500E-01 0.500 F 0.015 -0.077 +16° 34' 00.30" 1.000E-01 0.500 F 0.168 0.090 19.1 V 0.70 0.52 o 691 0.24 Yes Yes
1998QR15 O C 2013-01-06.24729 1.000E-05 08:23:49.590 1.500E-01 0.500 F 0.051 -0.501 +27° 31' 12.80" 1.000E-01 0.500 F 0.209 -0.149 20.3 V 0.70 -0.21 o 691 1.05 Yes Yes
1998QR15 O C 2013-01-06.26501 1.000E-05 08:23:47.890 1.500E-01 0.500 F 0.051 -0.225 +27° 31' 12.40" 1.000E-01 0.500 F 0.209 -0.159 20.4 V 0.70 -0.11 o 691 0.56 Yes Yes
1998QR15 O C 2013-01-06.28273 1.000E-05 08:23:46.160 1.500E-01 0.500 F 0.051 -0.295 +27° 31' 12.20" 1.000E-01 0.500 F 0.209 0.066 20.5 V 0.70 -0.01 o 691 0.61 Yes Yes
1993DQ1 O C H 2013-01-06.30025 1.000E-05 08:47:11.520 1.500E-01 0.500 F 0.069 -0.426 +21° 07' 08.10" 1.000E-01 0.500 F 0.205 0.277 21.1 V 0.70 0.08 o 691 1.02 Yes Yes
2013AP27 O C 2013-01-06.30025 1.000E-05 08:44:21.970 1.500E-01 0.500 F 0.062 -0.659 +20° 37' 10.20" 1.000E-01 0.500 F 0.228 -0.036 20.5 V 0.70 -0.26 o 691 1.33 Yes Yes
1993DQ1 O C H 2013-01-06.31795 1.000E-05 08:47:10.330 1.500E-01 0.500 F 0.069 -0.884 +21° 07' 10.70" 1.000E-01 0.500 F 0.205 0.027 20.9 V 0.70 -0.12 o 691 1.77 Yes Yes
2013AP27 O C 2013-01-06.31795 1.000E-05 08:44:20.290 1.500E-01 0.500 F 0.062 -0.321 +20° 37' 04.40" 1.000E-01 0.500 F 0.228 0.048 20.4 V 0.70 -0.36 o 691 0.65 Yes Yes
2013AP27 O C 2013-01-06.33566 1.000E-05 08:44:18.590 1.500E-01 0.500 F 0.062 -0.196 +20° 36' 58.60" 1.000E-01 0.500 F 0.228 0.176 20.5 V 0.70 -0.26 o 691 0.53 Yes Yes
2008VK14 O C 2013-01-06.34294 1.000E-05 08:58:35.360 1.500E-01 0.500 F 0.042 -0.306 +19° 35' 38.30" 1.000E-01 0.500 F 0.156 0.054 21.0 V 0.70 -0.25 o 691 0.62 Yes Yes
1998WT O C 2013-01-06.35790 1.000E-05 09:21:07.760 1.500E-01 0.500 F 0.038 -0.222 +16° 31' 52.80" 1.000E-01 0.500 F 0.258 0.118 19.3 V 0.70 0.38 o 691 0.50 Yes Yes
2008VK14 O C 2013-01-06.36061 1.000E-05 08:58:33.250 1.500E-01 0.500 F 0.042 -0.407 +19° 35' 42.50" 1.000E-01 0.500 F 0.156 -0.008 21.1 V 0.70 -0.15 o 691 0.82 Yes Yes
1998WT O C 2013-01-06.37559 1.000E-05 09:21:06.200 1.500E-01 0.500 F 0.038 -0.194 +16° 31' 57.70" 1.000E-01 0.500 F 0.258 -0.050 19.5 V 0.70 0.58 o 691 0.40 Yes Yes
2008VK14 O C 2013-01-06.37830 1.000E-05 08:58:31.150 1.500E-01 0.500 F 0.042 -0.306 +19° 35' 46.50" 1.000E-01 0.500 F 0.156 -0.242 21.3 V 0.70 0.06 o 691 0.78 Yes Yes
1998WT O C 2013-01-06.39327 1.000E-05 09:21:04.650 1.500E-01 0.500 F 0.038 0.011 +16° 32' 02.50" 1.000E-01 0.500 F 0.258 -0.286 19.5 V 0.70 0.58 o 691 0.57 Yes Yes
1998XZ4 O C H 2013-01-06.45849 1.000E-05 10:06:36.840 1.500E-01 0.500 F 0.175 -0.107 +18° 18' 18.60" 1.000E-01 0.500 F 0.192 -0.103 21.2 V 0.70 0.30 o 691 0.30 Yes Yes
1998XZ4 O C H 2013-01-06.47618 1.000E-05 10:06:35.850 1.500E-01 0.500 F 0.175 0.984 +18° 18' 21.20" 1.000E-01 0.500 F 0.192 -0.154 20.9 V 0.70 0.00 o 691 1.99 Yes Yes
1998XZ4 O C H 2013-01-06.49386 1.000E-05 10:06:34.720 1.500E-01 0.500 F 0.175 0.071 +18° 18' 24.80" 1.000E-01 0.500 F 0.192 0.810 21.1 V 0.70 0.20 o 691 1.63 Yes Yes
2002AW O C 2013-01-07.12570 1.000E-05 05:17:48.790 1.500E-01 0.500 F -0.077 -0.509 +21° 19' 30.50" 1.000E-01 0.500 F 0.203 0.009 20.9 V 0.70 0.60 o 691 1.03 Yes Yes
2002AW O C 2013-01-07.14167 1.000E-05 05:17:46.580 1.500E-01 0.500 F -0.077 -0.160 +21° 19' 29.90" 1.000E-01 0.500 F 0.203 -0.288 21.2 V 0.70 0.90 o 691 0.66 Yes Yes
2002AW O C 2013-01-07.15759 1.000E-05 05:17:44.350 1.500E-01 0.500 F -0.077 -0.103 +21° 19' 29.80" 1.000E-01 0.500 F 0.203 -0.027 20.8 V 0.70 0.50 o 691 0.22 Yes Yes
Mithra O C H 2013-01-07.17919 1.000E-05 07:57:41.140 1.500E-01 0.500 F 0.007 0.230 +23° 18' 55.30" 1.000E-01 0.500 F 0.232 -0.259 19.9 V 0.70 1.24 o 691 0.69 Yes Yes
1997SE5 O C H 2013-01-07.18192 1.000E-05 07:37:22.530 1.500E-01 0.500 F -0.023 0.063 +21° 19' 45.80" 1.000E-01 0.500 F 0.295 0.089 20.0 V 0.70 0.51 o 691 0.22 Yes Yes
Mithra O C H 2013-01-07.19690 1.000E-05 07:57:39.510 1.500E-01 0.500 F 0.007 -0.350 +23° 19' 01.60" 1.000E-01 0.500 F 0.232 0.050 20.0 V 0.70 1.34 o 691 0.71 Yes Yes
Mithra O C H 2013-01-07.21461 1.000E-05 07:57:37.970 1.500E-01 0.500 F 0.007 0.369 +23° 19' 07.00" 1.000E-01 0.500 F 0.232 -0.528 o 691 1.29 Yes No
1997SE5 O C H 2013-01-07.21734 1.000E-05 07:37:20.320 1.500E-01 0.500 F -0.023 0.528 +21° 19' 49.70" 1.000E-01 0.500 F 0.295 -0.332 o 691 1.25 Yes No
2001XP88 O C H 2013-01-07.35153 1.000E-05 09:05:07.760 1.500E-01 0.500 F 0.019 0.085 +23° 01' 15.70" 1.000E-01 0.500 F 0.284 -0.105 20.7 V 0.70 -0.02 o 691 0.27 Yes Yes
2001XP88 O C H 2013-01-07.36924 1.000E-05 09:05:05.970 1.500E-01 0.500 F 0.019 -0.647 +23° 01' 36.60" 1.000E-01 0.500 F 0.284 -0.272 21.6 V 0.70 0.89 o 691 1.41 Yes Yes
2001XP88 O C H 2013-01-07.38695 1.000E-05 09:05:04.270 1.500E-01 0.500 F 0.019 -0.092 +23° 01' 57.20" 1.000E-01 0.500 F 0.284 -0.662 20.8 V 0.70 0.09 o 691 1.34 Yes Yes
1997AQ18 O C 2013-01-07.41680 1.000E-05 09:21:37.010 1.500E-01 0.500 F 0.000 -0.067 +14° 09' 21.70" 1.000E-01 0.500 F 0.237 0.203 19.0 V 0.70 0.31 o 691 0.43 Yes Yes
1997AQ18 O C 2013-01-07.43451 1.000E-05 09:21:33.310 1.500E-01 0.500 F 0.000 -0.115 +14° 09' 12.90" 1.000E-01 0.500 F 0.237 0.235 18.7 V 0.70 0.01 o 691 0.53 Yes Yes
1997AQ18 O C 2013-01-07.45220 1.000E-05 09:21:29.610 1.500E-01 0.500 F 0.000 -0.246 +14° 09' 04.00" 1.000E-01 0.500 F 0.237 0.200 18.9 V 0.70 0.21 o 691 0.64 Yes Yes
2001YM2 O C H 2013-01-09.13007 1.000E-05 05:14:18.770 1.500E-01 0.500 F 0.007 0.094 +24° 46' 47.60" 1.000E-01 0.500 F 0.058 -0.055 20.0 V 0.70 0.71 o 691 0.22 Yes Yes
2001YM2 O C H 2013-01-09.15397 1.000E-05 05:14:20.260 1.500E-01 0.500 F -0.011 -0.087 +24° 47' 01.80" 1.000E-01 0.500 F 0.031 -0.055 20.0 V 0.70 0.71 o 691 0.21 Yes Yes
1989VB O C 2013-01-09.18871 1.000E-05 08:16:06.180 1.500E-01 0.500 F -0.043 -0.981 +24° 50' 35.50" 1.000E-01 0.500 F 0.186 0.179 21.0 V 0.70 0.20 o 691 2.00 Yes Yes
1989VB O C 2013-01-09.20386 1.000E-05 08:16:04.430 1.500E-01 0.500 F -0.043 -0.204 +24° 50' 41.00" 1.000E-01 0.500 F 0.186 -0.127 20.7 V 0.70 -0.10 o 691 0.48 Yes Yes
1989VB O C 2013-01-09.21899 1.000E-05 08:16:02.620 1.500E-01 0.500 F -0.043 -0.197 +24° 50' 47.20" 1.000E-01 0.500 F 0.186 0.302 20.4 V 0.70 -0.40 o 691 0.72 Yes Yes
2004YJ32 O C 2013-01-09.23273 1.000E-05 08:50:03.890 1.500E-01 0.500 F 0.018 -0.105 +18° 29' 44.80" 1.000E-01 0.500 F 0.187 -0.167 20.5 V 0.70 0.08 o 691 0.40 Yes Yes
2012XF17 O C 2013-01-09.23781 1.000E-05 08:44:46.010 1.500E-01 0.500 F 0.051 -0.102 +17° 22' 08.90" 1.000E-01 0.500 F 0.090 0.102 19.9 V 0.70 0.00 o 691 0.30 Yes Yes
2004YJ32 O C 2013-01-09.25042 1.000E-05 08:50:02.690 1.500E-01 0.500 F 0.018 -0.600 +18° 29' 51.10" 1.000E-01 0.500 F 0.187 -0.948 20.1 V 0.70 -0.32 o 691 2.25 Yes Yes
2012XF17 O C 2013-01-09.25551 1.000E-05 08:44:45.530 1.500E-01 0.500 F 0.051 -0.291 +17° 22' 06.90" 1.000E-01 0.500 F 0.090 0.013 19.9 V 0.70 0.00 o 691 0.60 Yes Yes
2004YJ32 O C 2013-01-09.26811 1.000E-05 08:50:01.560 1.500E-01 0.500 F 0.053 -0.094 +18° 29' 58.70" 1.000E-01 0.500 F 0.164 -0.394 20.4 V 0.70 -0.02 o 691 0.81 Yes Yes
2012XF17 O C 2013-01-09.27319 1.000E-05 08:44:45.050 1.500E-01 0.500 F 0.051 -0.270 +17° 22' 04.90" 1.000E-01 0.500 F 0.090 -0.013 19.9 V 0.70 0.00 o 691 0.56 Yes Yes
2005RN33 O C 2013-01-09.35131 1.000E-05 09:39:18.320 1.500E-01 0.500 F 0.083 -0.290 +20° 36' 49.40" 1.000E-01 0.500 F 0.442 0.299 20.7 V 0.70 0.16 o 691 0.84 Yes Yes
2005RN33 O C 2013-01-09.37214 1.000E-05 09:39:17.240 1.500E-01 0.500 F 0.083 -0.062 +20° 37' 08.30" 1.000E-01 0.500 F 0.442 0.209 20.6 V 0.70 0.06 o 691 0.44 Yes Yes
2005RN33 O C 2013-01-09.39055 1.000E-05 09:39:16.230 1.500E-01 0.500 F 0.083 -0.583 +20° 37' 24.80" 1.000E-01 0.500 F 0.442 -0.020 20.8 V 0.70 0.26 o 691 1.18 Yes Yes
2007AG12 O C H 2013-01-09.45643 1.000E-05 10:05:21.380 1.500E-01 0.500 F 0.058 0.251 +12° 23' 39.70" 1.000E-01 0.500 F 0.225 -0.366 20.8 V 0.70 0.00 o 691 0.89 Yes Yes
1990UQ O C 2013-01-09.46650 1.000E-05 10:15:09.440 1.500E-01 0.500 F 0.167 -0.986 +10° 41' 59.70" 1.000E-01 0.500 F 0.075 -0.336 20.6 V 0.70 -0.58 o 691 2.08 Yes Yes
1990UQ O C 2013-01-09.48428 1.000E-05 10:15:08.830 1.500E-01 0.500 F 0.167 -0.017 +10° 42' 05.40" 1.000E-01 0.500 F 0.075 0.320 20.7 V 0.70 -0.48 o 691 0.64 Yes Yes
2007AG12 O C H 2013-01-09.49207 1.000E-05 10:05:12.780 1.500E-01 0.500 F 0.058 -0.174 +12° 22' 53.10" 1.000E-01 0.500 F 0.225 -0.303 20.6 V 0.70 -0.20 o 691 0.70 Yes Yes
1990UQ O C 2013-01-09.50213 1.000E-05 10:15:08.170 1.500E-01 0.500 F 0.167 0.245 +10° 42' 11.00" 1.000E-01 0.500 F 0.075 0.865 20.3 V 0.70 -0.88 o 691 1.80 Yes Yes
2002AW O C 2013-01-10.10523 1.000E-05 05:11:38.070 1.500E-01 0.500 F -0.104 -0.505 +21° 17' 20.70" 1.000E-01 0.500 F 0.259 -0.402 o 691 1.30 Yes No
2002AW O C 2013-01-10.12839 1.000E-05 05:11:35.270 1.500E-01 0.500 F -0.104 -0.063 +21° 17' 20.70" 1.000E-01 0.500 F 0.259 -0.058 o 691 0.17 Yes No
2002AW O C 2013-01-10.14769 1.000E-05 05:11:32.910 1.500E-01 0.500 F -0.104 0.068 +21° 17' 20.50" 1.000E-01 0.500 F 0.259 0.119 o 691 0.28 Yes No
1998QR15 O C 2013-01-10.18044 1.000E-05 08:17:34.920 1.500E-01 0.500 F -0.001 -1.420 +27° 27' 57.80" 1.000E-01 0.500 F 0.194 -0.084 o 691 2.87 Yes No
1998QR15 O C 2013-01-10.19814 1.000E-05 08:17:33.270 1.500E-01 0.500 F -0.001 -0.452 +27° 27' 57.00" 1.000E-01 0.500 F 0.194 -0.040 o 691 0.92 Yes No
1998QR15 O C 2013-01-10.21583 1.000E-05 08:17:31.550 1.500E-01 0.500 F -0.001 -0.359 +27° 27' 56.30" 1.000E-01 0.500 F 0.194 0.128 o 691 0.77 Yes No
2013AP27 O C 2013-01-10.23127 1.000E-05 08:38:12.180 1.500E-01 0.500 F 0.068 -0.722 +20° 15' 07.10" 1.000E-01 0.500 F 0.171 -0.071 o 691 1.46 Yes No
2013AP27 O C 2013-01-10.24896 1.000E-05 08:38:10.460 1.500E-01 0.500 F 0.068 -0.311 +20° 15' 01.50" 1.000E-01 0.500 F 0.171 -0.091 o 691 0.65 Yes No
2013AP27 O C 2013-01-10.26666 1.000E-05 08:38:08.720 1.500E-01 0.500 F 0.068 -0.080 +20° 14' 55.80" 1.000E-01 0.500 F 0.171 -0.176 o 691 0.39 Yes No
1998WT O C 2013-01-10.29039 1.000E-05 09:14:58.750 1.500E-01 0.500 F 0.051 -0.180 +16° 52' 24.50" 1.000E-01 0.500 F 0.159 -0.201 o 691 0.54 Yes No
1998WT O C 2013-01-10.30806 1.000E-05 09:14:56.850 1.500E-01 0.500 F 0.051 -0.072 +16° 52' 30.90" 1.000E-01 0.500 F 0.159 -0.067 o 691 0.20 Yes No
1998WT O C 2013-01-10.32574 1.000E-05 09:14:54.920 1.500E-01 0.500 F 0.051 -0.291 +16° 52' 37.20" 1.000E-01 0.500 F 0.159 -0.009 o 691 0.58 Yes No
2013AY52 O C 2013-01-10.44827 1.000E-05 10:31:51.730 1.500E-01 0.500 F 0.078 -0.260 +15° 14' 44.80" 1.000E-01 0.500 F 0.112 0.233 19.5 V 0.70 0.00 o 691 0.70 Yes Yes
2013AY52 O C 2013-01-10.46594 1.000E-05 10:31:49.000 1.500E-01 0.500 F 0.078 0.142 +15° 15' 50.10" 1.000E-01 0.500 F 0.112 -0.154 20.5 V 0.70 1.00 o 691 0.42 Yes Yes
2013AY52 O C 2013-01-10.48362 1.000E-05 10:31:46.250 1.500E-01 0.500 F 0.078 0.258 +15° 16' 55.00" 1.000E-01 0.500 F 0.112 -0.901 20.6 V 0.70 1.10 o 691 1.88 Yes Yes
2012XF17 O C 2013-01-17.23427 1.000E-05 08:41:21.550 1.500E-01 0.500 F -0.079 -0.195 +17° 09' 45.50" 1.000E-01 0.500 F 0.130 0.114 19.8 V 0.70 -0.07 o 691 0.46 Yes Yes
2012XF17 O C 2013-01-17.25238 1.000E-05 08:41:20.870 1.500E-01 0.500 F -0.079 -0.004 +17° 09' 44.90" 1.000E-01 0.500 F 0.130 -0.003 19.9 V 0.70 0.03 o 691 0.01 Yes Yes
2012XF17 O C 2013-01-17.27051 1.000E-05 08:41:20.150 1.500E-01 0.500 F -0.079 -0.203 +17° 09' 44.50" 1.000E-01 0.500 F 0.130 0.152 19.8 V 0.70 -0.07 o 691 0.52 Yes Yes
2001XP88 O C 2013-01-17.29049 1.000E-05 08:47:37.110 1.500E-01 0.500 F -0.008 -0.385 +26° 13' 31.10" 1.000E-01 0.500 F 0.262 -0.008 20.4 V 0.70 -0.04 o 691 0.78 Yes Yes
2001XP88 O C 2013-01-17.30866 1.000E-05 08:47:34.840 1.500E-01 0.500 F -0.008 -0.603 +26° 13' 52.10" 1.000E-01 0.500 F 0.262 0.729 20.2 V 0.70 -0.24 o 691 1.91 Yes Yes
2001XP88 O C 2013-01-17.32683 1.000E-05 08:47:32.620 1.500E-01 0.500 F -0.008 -0.086 +26° 14' 11.60" 1.000E-01 0.500 F 0.262 0.061 20.5 V 0.70 0.06 o 691 0.21 Yes Yes
2006OF15 O C 2013-01-17.35051 1.000E-05 09:18:59.070 1.500E-01 0.500 F 0.068 -0.603 +19° 37' 01.60" 1.000E-01 0.500 F 0.204 -0.022 20.9 V 0.70 -0.06 o 691 1.22 Yes Yes
2013BU15 O C 2013-01-17.35051 1.000E-05 09:21:05.550 1.500E-01 0.500 F 0.114 -0.184 +19° 56' 16.70" 1.000E-01 0.500 F 0.197 -0.121 20.6 V 0.70 -0.41 o 691 0.45 Yes Yes
2006OF15 O C 2013-01-17.36864 1.000E-05 09:18:57.740 1.500E-01 0.500 F 0.068 -0.562 +19° 37' 22.30" 1.000E-01 0.500 F 0.204 0.182 20.8 V 0.70 -0.16 o 691 1.19 Yes Yes
2013BU15 O C 2013-01-17.36864 1.000E-05 09:21:07.660 1.500E-01 0.500 F 0.114 -0.275 +19° 56' 08.00" 1.000E-01 0.500 F 0.197 0.084 20.5 V 0.70 -0.51 o 691 0.59 Yes Yes
2006OF15 O C 2013-01-17.38692 1.000E-05 09:18:56.400 1.500E-01 0.500 F 0.068 -0.497 +19° 37' 42.90" 1.000E-01 0.500 F 0.204 0.145 20.9 V 0.70 -0.06 o 691 1.04 Yes Yes
2013BU15 O C 2013-01-17.38692 1.000E-05 09:21:09.790 1.500E-01 0.500 F 0.114 -0.355 +19° 55' 58.30" 1.000E-01 0.500 F 0.197 -0.452 20.6 V 0.70 -0.41 o 691 1.17 Yes Yes
2005TJ174 O C 2013-01-17.41060 1.000E-05 09:36:32.110 1.500E-01 0.500 F -0.012 -0.226 +13° 21' 50.70" 1.000E-01 0.500 F 0.279 -0.275 20.2 V 0.70 -0.18 o 691 0.71 Yes Yes
2005TJ174 O C 2013-01-17.42606 1.000E-05 09:36:31.070 1.500E-01 0.500 F -0.012 -0.206 +13° 21' 54.40" 1.000E-01 0.500 F 0.279 -0.160 20.1 V 0.70 -0.28 o 691 0.52 Yes Yes
2005TJ174 O C 2013-01-17.44152 1.000E-05 09:36:30.040 1.500E-01 0.500 F -0.012 -0.048 +13° 21' 58.10" 1.000E-01 0.500 F 0.279 -0.035 20.1 V 0.70 -0.28 o 691 0.12 Yes Yes
1998QR15 O C H 2013-01-18.19469 1.000E-05 08:05:01.460 1.500E-01 0.500 F -0.053 -0.095 +27° 14' 58.90" 1.000E-01 0.500 F 0.244 0.203 20.4 V 0.70 -0.05 o 691 0.45 Yes Yes
1998QR15 O C H 2013-01-18.20987 1.000E-05 08:05:00.020 1.500E-01 0.500 F -0.053 -0.420 +27° 14' 57.60" 1.000E-01 0.500 F 0.244 0.686 21.1 V 0.70 0.65 o 691 1.62 Yes Yes
1998QR15 O C H 2013-01-18.22501 1.000E-05 08:04:58.660 1.500E-01 0.500 F -0.053 0.307 +27° 14' 55.00" 1.000E-01 0.500 F 0.244 -0.113 20.7 V 0.70 0.25 o 691 0.66 Yes Yes
2008VK14 O C 2013-01-18.24491 1.000E-05 08:34:10.560 1.500E-01 0.500 F 0.044 -0.793 +20° 20' 11.00" 1.000E-01 0.500 F 0.198 -0.256 20.7 V 0.70 -0.25 o 691 1.67 Yes Yes
2004YJ32 O C 2013-01-18.24738 1.000E-05 08:39:52.600 1.500E-01 0.500 F 0.054 -0.320 +19° 29' 09.10" 1.000E-01 0.500 F 0.166 0.250 20.5 V 0.70 0.25 o 691 0.81 Yes Yes
2008VK14 O C 2013-01-18.26003 1.000E-05 08:34:08.610 1.500E-01 0.500 F 0.044 -0.708 +20° 20' 14.80" 1.000E-01 0.500 F 0.198 0.425 20.9 V 0.70 -0.05 o 691 1.66 Yes Yes
2004YJ32 O C 2013-01-18.26250 1.000E-05 08:39:51.510 1.500E-01 0.500 F 0.054 -0.443 +19° 29' 15.10" 1.000E-01 0.500 F 0.166 0.269 20.3 V 0.70 0.05 o 691 1.04 Yes Yes
2008VK14 O C 2013-01-18.27515 1.000E-05 08:34:06.700 1.500E-01 0.500 F 0.044 -0.028 +20° 20' 17.30" 1.000E-01 0.500 F 0.198 -0.171 21.0 V 0.70 0.05 o 691 0.35 Yes Yes
2004YJ32 O C 2013-01-18.27762 1.000E-05 08:39:50.460 1.500E-01 0.500 F 0.054 0.019 +19° 29' 20.90" 1.000E-01 0.500 F 0.166 0.099 20.3 V 0.70 0.05 o 691 0.20 Yes Yes
2005RN33 O C H 2013-01-18.33794 1.000E-05 09:30:16.240 1.500E-01 0.500 F 0.004 0.223 +22° 55' 08.60" 1.000E-01 0.500 F 0.324 -0.346 20.5 V 0.70 0.15 o 691 0.83 Yes Yes
2005RN33 O C H 2013-01-18.35564 1.000E-05 09:30:14.850 1.500E-01 0.500 F 0.004 -0.179 +22° 55' 25.40" 1.000E-01 0.500 F 0.324 0.018 20.6 V 0.70 0.26 o 691 0.36 Yes Yes
2005RN33 O C H 2013-01-18.37345 1.000E-05 09:30:13.500 1.500E-01 0.500 F 0.004 0.120 +22° 55' 41.90" 1.000E-01 0.500 F 0.324 0.038 o 691 0.26 Yes No
2003XF11 O C H 2013-01-18.39846 1.000E-05 10:05:47.700 1.500E-01 0.500 F 0.158 -0.979 +16° 46' 20.60" 1.000E-01 0.500 F 0.267 0.582 20.8 V 0.70 0.17 o 691 2.29 Yes Yes
2003XF11 O C H 2013-01-18.41961 1.000E-05 10:05:46.380 1.500E-01 0.500 F 0.158 0.360 +16° 46' 31.60" 1.000E-01 0.500 F 0.267 -0.420 21.0 V 0.70 0.37 o 691 1.11 Yes Yes
2003XF11 O C H 2013-01-18.43730 1.000E-05 10:05:45.190 1.500E-01 0.500 F 0.158 0.253 +16° 46' 42.00" 1.000E-01 0.500 F 0.267 -0.046 20.9 V 0.70 0.27 o 691 0.52 Yes Yes
1990UQ O C 2013-01-18.45982 1.000E-05 10:08:07.920 1.500E-01 0.500 F 0.136 -0.053 +11° 34' 45.40" 1.000E-01 0.500 F 0.116 0.088 20.5 V 0.70 -0.36 o 691 0.21 Yes Yes
1990UQ O C 2013-01-18.47493 1.000E-05 10:08:07.020 1.500E-01 0.500 F 0.136 0.130 +11° 34' 51.60" 1.000E-01 0.500 F 0.116 0.026 20.3 V 0.70 -0.56 o 691 0.27 Yes Yes
1990UQ O C 2013-01-18.49351 1.000E-05 10:08:05.900 1.500E-01 0.500 F 0.136 0.140 +11° 34' 59.20" 1.000E-01 0.500 F 0.116 -0.064 20.6 V 0.70 -0.26 o 691 0.31 Yes Yes
1993DQ1 O C H 2013-01-19.23877 1.000E-05 08:32:02.040 1.500E-01 0.500 F 0.105 -0.129 +21° 40' 51.80" 1.000E-01 0.500 F 0.247 -0.111 21.1 V 0.70 0.42 o 691 0.34 Yes Yes
1993DQ1 O C H 2013-01-19.25648 1.000E-05 08:32:00.640 1.500E-01 0.500 F 0.105 -0.803 +21° 40' 54.90" 1.000E-01 0.500 F 0.247 0.295 21.1 V 0.70 0.43 o 691 1.71 Yes Yes
1998WT O C 2013-01-19.29149 1.000E-05 08:55:46.790 1.500E-01 0.500 F 0.064 -0.253 +17° 53' 01.40" 1.000E-01 0.500 F 0.189 0.092 19.1 V 0.70 1.06 o 691 0.54 Yes Yes
1998WT O C 2013-01-19.30917 1.000E-05 08:55:44.020 1.500E-01 0.500 F 0.064 -0.149 +17° 53' 09.40" 1.000E-01 0.500 F 0.189 -0.058 19.0 V 0.70 0.97 o 691 0.32 Yes Yes
1998WT O C 2013-01-19.32686 1.000E-05 08:55:41.230 1.500E-01 0.500 F 0.064 -0.243 +17° 53' 17.60" 1.000E-01 0.500 F 0.189 0.030 18.9 V 0.70 0.87 o 691 0.49 Yes Yes
2013BR45 O C 2013-01-19.34676 1.000E-05 09:12:13.410 1.500E-01 0.500 F 0.062 0.678 +10° 55' 00.60" 1.000E-01 0.500 F 0.221 -0.094 21.3 V 0.70 0.16 o 691 1.38 Yes Yes
2013BR45 O C 2013-01-19.36445 1.000E-05 09:12:10.490 1.500E-01 0.500 F 0.062 -0.330 +10° 55' 18.60" 1.000E-01 0.500 F 0.221 0.419 20.9 V 0.70 -0.24 o 691 1.07 Yes Yes
2013BR45 O C 2013-01-19.38213 1.000E-05 09:12:07.630 1.500E-01 0.500 F 0.062 -0.484 +10° 55' 35.50" 1.000E-01 0.500 F 0.221 -0.131 21.2 V 0.70 0.06 o 691 1.01 Yes Yes
1998XZ4 O C 2013-01-19.40209 1.000E-05 09:51:41.570 1.500E-01 0.500 F 0.147 -0.602 +18° 55' 22.50" 1.000E-01 0.500 F 0.402 -0.212 20.6 V 0.70 -0.07 o 691 1.28 Yes Yes
1998XZ4 O C 2013-01-19.41977 1.000E-05 09:51:40.180 1.500E-01 0.500 F 0.147 -0.236 +18° 55' 25.70" 1.000E-01 0.500 F 0.402 -0.228 20.6 V 0.70 -0.07 o 691 0.66 Yes Yes
1998XZ4 O C 2013-01-19.43748 1.000E-05 09:51:38.760 1.500E-01 0.500 F 0.147 -0.264 +18° 55' 28.30" 1.000E-01 0.500 F 0.402 -0.834 20.3 V 0.70 -0.37 o 691 1.75 Yes Yes
2001XP88 O C H 2013-01-20.24110 1.000E-05 08:41:47.350 1.500E-01 0.500 F -0.004 -0.342 +27° 06' 05.90" 1.000E-01 0.500 F 0.168 -0.225 20.7 V 0.70 0.31 o 691 0.82 Yes Yes
2001XP88 O C H 2013-01-20.25881 1.000E-05 08:41:45.090 1.500E-01 0.500 F -0.004 -0.662 +27° 06' 24.50" 1.000E-01 0.500 F 0.168 -0.390 20.4 V 0.70 0.01 o 691 1.55 Yes Yes
2000BG19 O C 2013-01-20.39373 1.000E-05 09:36:12.210 1.500E-01 0.500 F 0.131 -0.078 +07° 14' 46.70" 1.000E-01 0.500 F 0.127 0.123 20.3 V 0.70 0.22 o 691 0.29 Yes Yes
2000BG19 O C 2013-01-20.41137 1.000E-05 09:36:11.560 1.500E-01 0.500 F 0.131 -0.330 +07° 14' 55.60" 1.000E-01 0.500 F 0.127 -0.142 20.0 V 0.70 -0.08 o 691 0.73 Yes Yes
2000BG19 O C 2013-01-20.42902 1.000E-05 09:36:10.950 1.500E-01 0.500 F 0.131 0.008 +07° 15' 04.60" 1.000E-01 0.500 F 0.127 -0.308 20.3 V 0.70 0.22 o 691 0.62 Yes Yes
2013BS45 O C 2013-01-20.44396 1.000E-05 10:26:27.300 1.500E-01 0.500 F 0.042 -0.237 +19° 20' 12.20" 1.000E-01 0.500 F 0.284 0.377 20.4 V 0.70 0.00 o 691 0.91 Yes Yes
2013BS45 O C 2013-01-20.46163 1.000E-05 10:26:29.070 1.500E-01 0.500 F 0.042 -0.470 +19° 20' 41.30" 1.000E-01 0.500 F 0.284 -0.078 20.4 V 0.70 0.01 o 691 0.96 Yes Yes
2013BS45 O C 2013-01-20.47930 1.000E-05 10:26:30.920 1.500E-01 0.500 F 0.042 -0.243 +19° 21' 10.40" 1.000E-01 0.500 F 0.284 0.097 20.4 V 0.70 0.01 o 691 0.52 Yes Yes
2003XF11 O C 2013-01-22.38596 1.000E-05 10:01:08.710 1.500E-01 0.500 F 0.134 -0.698 +17° 25' 48.20" 1.000E-01 0.500 F 0.189 -0.066 20.5 V 0.70 0.05 o 691 1.41 Yes Yes
2003XF11 O C 2013-01-22.40369 1.000E-05 10:01:07.340 1.500E-01 0.500 F 0.134 -0.685 +17° 25' 58.50" 1.000E-01 0.500 F 0.189 -0.745 20.3 V 0.70 -0.15 o 691 2.03 Yes Yes
2003XF11 O C 2013-01-22.42141 1.000E-05 10:01:05.990 1.500E-01 0.500 F 0.134 -0.390 +17° 26' 10.00" 1.000E-01 0.500 F 0.189 -0.205 20.5 V 0.70 0.05 o 691 0.88 Yes Yes
1990UQ O C 2013-01-22.44498 1.000E-05 10:03:57.450 1.500E-01 0.500 F 0.058 -0.056 +12° 04' 15.90" 1.000E-01 0.500 F 0.225 -0.140 20.8 V 0.70 0.09 o 691 0.30 Yes Yes
1990UQ O C 2013-01-22.46270 1.000E-05 10:03:56.200 1.500E-01 0.500 F 0.058 -0.180 +12° 04' 24.10" 1.000E-01 0.500 F 0.225 -0.227 20.7 V 0.70 -0.01 o 691 0.58 Yes Yes
1990UQ O C 2013-01-22.48042 1.000E-05 10:03:54.940 1.500E-01 0.500 F 0.058 -0.471 +12° 04' 32.30" 1.000E-01 0.500 F 0.225 -0.304 20.4 V 0.70 -0.31 o 691 1.12 Yes Yes
1990UQ O C 2013-01-31.36462 1.000E-05 09:52:25.620 1.500E-01 0.500 F 0.103 -0.147 +13° 21' 52.70" 1.000E-01 0.500 F 0.178 -0.030 o 691 0.30 Yes No
1990UQ O C 2013-01-31.38234 1.000E-05 09:52:24.000 1.500E-01 0.500 F 0.103 -0.607 +13° 22' 02.70" 1.000E-01 0.500 F 0.178 -0.060 o 691 1.22 Yes No
1990UQ O C 2013-01-31.40025 1.000E-05 09:52:22.390 1.500E-01 0.500 F 0.103 -0.675 +13° 22' 13.30" 1.000E-01 0.500 F 0.178 0.418 o 691 1.59 Yes No
2013BE74 O C 2013-01-31.42833 1.000E-05 10:11:29.730 1.500E-01 0.500 F 0.046 0.091 +12° 36' 38.40" 1.000E-01 0.500 F 0.234 0.369 20.4 V 0.70 -0.03 o 691 0.78 Yes Yes
2003BM47 O C H 2013-01-31.43081 1.000E-05 10:25:22.360 1.500E-01 0.500 F 0.085 0.015 +11° 34' 51.90" 1.000E-01 0.500 F 0.191 1.197 21.2 V 0.70 0.38 o 691 2.41 Yes Yes
2013BE74 O C 2013-01-31.43849 1.000E-05 10:11:29.670 1.500E-01 0.500 F 0.046 -0.365 +12° 35' 47.60" 1.000E-01 0.500 F 0.234 -1.063 20.4 V 0.70 -0.03 o 691 2.32 Yes Yes
2003BM47 O C H 2013-01-31.44097 1.000E-05 10:25:21.300 1.500E-01 0.500 F 0.085 0.360 +11° 35' 04.70" 1.000E-01 0.500 F 0.191 -0.722 20.6 V 0.70 -0.22 o 691 1.62 Yes Yes
2013BE74 O C 2013-01-31.44864 1.000E-05 10:11:29.680 1.500E-01 0.500 F 0.046 0.110 +12° 34' 59.40" 1.000E-01 0.500 F 0.234 0.103 20.4 V 0.70 -0.03 o 691 0.31 Yes Yes
2003BM47 O C H 2013-01-31.45112 1.000E-05 10:25:20.170 1.500E-01 0.500 F 0.085 -0.348 +11° 35' 19.30" 1.000E-01 0.500 F 0.191 -0.822 20.5 V 0.70 -0.32 o 691 1.79 Yes Yes
2005EA60 O C 2013-01-31.47527 1.000E-05 10:51:41.180 1.500E-01 0.500 F 0.193 -0.138 +08° 49' 00.60" 1.000E-01 0.500 F 0.081 -0.070 o 691 0.31 Yes No
2005EA60 O C 2013-01-31.49036 1.000E-05 10:51:40.510 1.500E-01 0.500 F 0.193 -0.323 +08° 48' 59.70" 1.000E-01 0.500 F 0.081 -0.176 o 691 0.74 Yes No
2005EA60 O C 2013-01-31.50893 1.000E-05 10:51:39.710 1.500E-01 0.500 F 0.193 -0.294 +08° 48' 58.60" 1.000E-01 0.500 F 0.081 -0.276 o 691 0.81 Yes No
2004OT11 O C H 2013-02-01.18668 1.000E-05 07:20:59.120 1.500E-01 0.500 F -0.001 -0.146 +20° 58' 27.90" 1.000E-01 0.500 F 0.224 -0.267 21.5 V 0.70 0.33 o 691 0.61 Yes Yes
2004OT11 O C H 2013-02-01.20067 1.000E-05 07:20:57.910 1.500E-01 0.500 F -0.001 -0.675 +20° 58' 26.10" 1.000E-01 0.500 F 0.224 -0.159 21.4 V 0.70 0.23 o 691 1.39 Yes Yes
2004OT11 O C H 2013-02-01.21466 1.000E-05 07:20:56.670 1.500E-01 0.500 F -0.001 -1.616 +20° 58' 23.80" 1.000E-01 0.500 F 0.224 -0.538 21.6 V 0.70 0.43 o 691 3.39 No Yes
2003XF11 O C 2013-02-01.22900 1.000E-05 09:46:42.520 1.500E-01 0.500 F 0.142 -0.147 +19° 16' 14.60" 1.000E-01 0.500 F 0.426 0.142 20.0 V 0.70 0.03 o 691 0.41 Yes Yes

[1-200] [201-400] [401-600] [601-800] [801-1000] [1001-1200] [1201-1400] [1401-1600] [1601-1800] [1801-2000] [2001-2200] [2201-2400] [2401-2600] [2601-2800] [2801-3000] [3001-3200] [3201-3400] [3401-3600] [3601-3800] [3801-4000] [4001-4200] [4201-4400] [4401-4600] [4601-4800] [4801-5000] [5001-5200] [5201-5400] [5401-5600] [5601-5800] [5801-6000] [6001-6200] [6201-6400] [6401-6600] [6601-6800] [6801-7000] [7001-7200] [7201-7400] [7401-7600] [7601-7800] [7801-8000] [8001-8200] [8201-8400] [8401-8600] [8601-8800] [8801-9000] [9001-9200] [9201-9400] [9401-9600] [9601-9800] [9801-10000] [10001-10200] [10201-10400] [10401-10600] [10601-10800] [10801-11000] [11001-11200] [11201-11400] [11401-11600] [11601-11800] [11801-12000] [12001-12200] [12201-12400] [12401-12600] [12601-12800] [12801-13000] [13001-13200] [13201-13400] [13401-13600] [13601-13800] [13801-14000] [14001-14200] [14201-14400] [14401-14600] [14601-14800] [14801-15000] [15001-15200] [15201-15400] [15401-15600] [15601-15800] [15801-16000] [16001-16200] [16201-16400] [16401-16600] [16601-16800] [16801-17000] [17001-17200] [17201-17400] [17401-17600] [17601-17800] [17801-18000] [18001-18200] [18201-18400] [18401-18600] [18601-18800] [18801-19000] [19001-19200] [19201-19400] [19401-19600] [19601-19800] [19801-20000] [20001-20200] [20201-20400] [20401-20600] [20601-20800] [20801-21000] [21001-21200] [21201-21400] [21401-21600] [21601-21800] [21801-22000] [22001-22200] [22201-22400] [22401-22600] [22601-22800] [22801-23000] [23001-23200] [23201-23400] [23401-23600] [23601-23800] [23801-24000] [24001-24200] [24201-24400] [24401-24600] [24601-24800] [24801-25000] [25001-25200] [25201-25400] [25401-25600] [25601-25800] [25801-26000] [26001-26200] [26201-26400] [26401-26600] [26601-26800] [26801-27000] [27001-27200] [27201-27400] [27401-27600] [27601-27800] [27801-28000] [28001-28200] [28201-28400] [28401-28600] [28601-28800] [28801-29000] [29001-29200] [29201-29400] [29401-29600] [29601-29800] [29801-30000] [30001-30200] [30201-30400] [30401-30600] [30601-30800] [30801-31000] [31001-31200] [31201-31400] [31401-31600] [31601-31800] [31801-32000] [32001-32200] [32201-32400] [32401-32600] [32601-32800] [32801-33000] [33001-33200] [33201-33400] [33401-33600] [33601-33800] [33801-34000] [34001-34200] [34201-34400] [34401-34600] [34601-34800] [34801-35000] [35001-35200] [35201-35400] [35401-35600] [35601-35800] [35801-36000] [36001-36200] [36201-36400] [36401-36600] [36601-36800] [36801-37000] [37001-37200] [37201-37400] [37401-37600] [37601-37800] [37801-38000] [38001-38200] [38201-38400] [38401-38600] [38601-38800] [38801-39000] [39001-39200] [39201-39400] [39401-39600] [39601-39800] [39801-40000] [40001-40200] [40201-40400] [40401-40600] [40601-40800] [40801-41000] [41001-41200] [41201-41400] [41401-41600] [41601-41800] [41801-42000] [42001-42200] [42201-42400] [42401-42600] [42601-42800] [42801-43000] [43001-43200] [43201-43400] [43401-43600] [43601-43800] [43801-44000] [44001-44200] [44201-44400] [44401-44600] [44601-44800] [44801-45000] [45001-45200] [45201-45400] [45401-45600] [45601-45800] [45801-46000] [46001-46200] [46201-46400] [46401-46600] [46601-46800] [46801-47000] [47001-47200] [47201-47400] [47401-47600] [47601-47800] [47801-48000] [48001-48200] [48201-48400] [48401-48600] [48601-48800] [48801-49000] [49001-49200] [49201-49400] [49401-49600] [49601-49800] [49801-50000] [50001-50200] [50201-50388]